sensor_id;sensor_type;location;lat;lon;timestamp;P1;durP1;ratioP1;P2;durP2;ratioP2
77350;SDS011;66420;50.246;14.320;2023-06-22T00:00:06;7.70;;;4.85;;
77350;SDS011;66420;50.246;14.320;2023-06-22T00:02:56;8.30;;;4.95;;
77350;SDS011;66420;50.246;14.320;2023-06-22T00:05:41;8.57;;;5.22;;
77350;SDS011;66420;50.246;14.320;2023-06-22T00:08:25;10.73;;;5.53;;
77350;SDS011;66420;50.246;14.320;2023-06-22T00:11:10;7.65;;;5.40;;
77350;SDS011;66420;50.246;14.320;2023-06-22T00:13:55;9.45;;;5.45;;
77350;SDS011;66420;50.246;14.320;2023-06-22T00:16:40;9.75;;;5.63;;
77350;SDS011;66420;50.246;14.320;2023-06-22T00:19:27;10.00;;;6.20;;
77350;SDS011;66420;50.246;14.320;2023-06-22T00:22:11;10.32;;;5.78;;
77350;SDS011;66420;50.246;14.320;2023-06-22T00:24:56;9.23;;;5.05;;
77350;SDS011;66420;50.246;14.320;2023-06-22T00:27:41;8.63;;;5.53;;
77350;SDS011;66420;50.246;14.320;2023-06-22T00:30:26;10.32;;;5.28;;
77350;SDS011;66420;50.246;14.320;2023-06-22T00:33:10;6.53;;;4.70;;
77350;SDS011;66420;50.246;14.320;2023-06-22T00:35:55;10.57;;;5.32;;
77350;SDS011;66420;50.246;14.320;2023-06-22T00:38:40;9.07;;;5.45;;
77350;SDS011;66420;50.246;14.320;2023-06-22T00:41:25;9.30;;;5.40;;
77350;SDS011;66420;50.246;14.320;2023-06-22T00:44:13;7.40;;;5.35;;
77350;SDS011;66420;50.246;14.320;2023-06-22T00:46:57;8.05;;;5.45;;
77350;SDS011;66420;50.246;14.320;2023-06-22T00:49:44;8.60;;;5.63;;
77350;SDS011;66420;50.246;14.320;2023-06-22T00:52:31;7.90;;;5.18;;
77350;SDS011;66420;50.246;14.320;2023-06-22T00:55:18;9.93;;;5.43;;
77350;SDS011;66420;50.246;14.320;2023-06-22T00:58:06;8.88;;;5.65;;
77350;SDS011;66420;50.246;14.320;2023-06-22T01:00:54;9.40;;;5.57;;
77350;SDS011;66420;50.246;14.320;2023-06-22T01:03:39;8.40;;;5.18;;
77350;SDS011;66420;50.246;14.320;2023-06-22T01:06:26;9.05;;;4.82;;
77350;SDS011;66420;50.246;14.320;2023-06-22T01:09:22;9.60;;;5.43;;
77350;SDS011;66420;50.246;14.320;2023-06-22T01:12:15;8.65;;;5.50;;
77350;SDS011;66420;50.246;14.320;2023-06-22T01:15:14;8.55;;;5.60;;
77350;SDS011;66420;50.246;14.320;2023-06-22T01:18:05;8.00;;;5.03;;
77350;SDS011;66420;50.246;14.320;2023-06-22T01:20:53;11.85;;;5.53;;
77350;SDS011;66420;50.246;14.320;2023-06-22T01:23:45;7.82;;;5.55;;
77350;SDS011;66420;50.246;14.320;2023-06-22T01:26:42;9.75;;;5.30;;
77350;SDS011;66420;50.246;14.320;2023-06-22T01:29:33;8.75;;;5.68;;
77350;SDS011;66420;50.246;14.320;2023-06-22T01:32:20;8.95;;;5.53;;
77350;SDS011;66420;50.246;14.320;2023-06-22T01:35:06;8.07;;;5.32;;
77350;SDS011;66420;50.246;14.320;2023-06-22T01:37:51;8.43;;;5.47;;
77350;SDS011;66420;50.246;14.320;2023-06-22T01:40:36;8.05;;;5.00;;
77350;SDS011;66420;50.246;14.320;2023-06-22T01:43:22;9.35;;;5.80;;
77350;SDS011;66420;50.246;14.320;2023-06-22T01:46:10;7.22;;;5.28;;
77350;SDS011;66420;50.246;14.320;2023-06-22T01:48:55;8.20;;;5.03;;
77350;SDS011;66420;50.246;14.320;2023-06-22T01:51:40;10.50;;;5.88;;
77350;SDS011;66420;50.246;14.320;2023-06-22T01:54:26;9.23;;;6.22;;
77350;SDS011;66420;50.246;14.320;2023-06-22T01:57:10;10.63;;;6.13;;
77350;SDS011;66420;50.246;14.320;2023-06-22T02:00:00;9.15;;;5.65;;
77350;SDS011;66420;50.246;14.320;2023-06-22T02:02:54;9.45;;;6.55;;
77350;SDS011;66420;50.246;14.320;2023-06-22T02:06:08;12.60;;;6.05;;
77350;SDS011;66420;50.246;14.320;2023-06-22T02:08:59;12.77;;;5.97;;
77350;SDS011;66420;50.246;14.320;2023-06-22T02:11:45;10.25;;;5.82;;
77350;SDS011;66420;50.246;14.320;2023-06-22T02:14:31;11.82;;;6.13;;
77350;SDS011;66420;50.246;14.320;2023-06-22T02:17:17;10.32;;;6.38;;
77350;SDS011;66420;50.246;14.320;2023-06-22T02:20:03;11.80;;;6.45;;
77350;SDS011;66420;50.246;14.320;2023-06-22T02:22:52;13.55;;;6.50;;
77350;SDS011;66420;50.246;14.320;2023-06-22T02:25:36;11.80;;;6.90;;
77350;SDS011;66420;50.246;14.320;2023-06-22T02:28:22;11.23;;;6.63;;
77350;SDS011;66420;50.246;14.320;2023-06-22T02:31:07;11.40;;;7.25;;
77350;SDS011;66420;50.246;14.320;2023-06-22T02:33:52;12.57;;;6.47;;
77350;SDS011;66420;50.246;14.320;2023-06-22T02:36:36;15.95;;;6.65;;
77350;SDS011;66420;50.246;14.320;2023-06-22T02:39:22;12.65;;;6.47;;
77350;SDS011;66420;50.246;14.320;2023-06-22T02:42:08;13.10;;;7.03;;
77350;SDS011;66420;50.246;14.320;2023-06-22T02:44:54;9.55;;;6.28;;
77350;SDS011;66420;50.246;14.320;2023-06-22T02:47:39;12.30;;;6.45;;
77350;SDS011;66420;50.246;14.320;2023-06-22T02:50:23;9.98;;;6.15;;
77350;SDS011;66420;50.246;14.320;2023-06-22T02:53:09;11.48;;;6.43;;
77350;SDS011;66420;50.246;14.320;2023-06-22T02:55:55;14.48;;;6.78;;
77350;SDS011;66420;50.246;14.320;2023-06-22T02:58:39;13.07;;;6.93;;
77350;SDS011;66420;50.246;14.320;2023-06-22T03:01:24;11.20;;;5.78;;
77350;SDS011;66420;50.246;14.320;2023-06-22T03:04:12;11.35;;;6.38;;
77350;SDS011;66420;50.246;14.320;2023-06-22T03:06:57;13.35;;;6.57;;
77350;SDS011;66420;50.246;14.320;2023-06-22T03:09:45;10.43;;;6.68;;
77350;SDS011;66420;50.246;14.320;2023-06-22T03:12:29;12.90;;;7.20;;
77350;SDS011;66420;50.246;14.320;2023-06-22T03:15:14;16.40;;;6.65;;
77350;SDS011;66420;50.246;14.320;2023-06-22T03:17:59;11.23;;;6.80;;
77350;SDS011;66420;50.246;14.320;2023-06-22T03:20:44;13.13;;;6.60;;
77350;SDS011;66420;50.246;14.320;2023-06-22T03:23:29;9.10;;;6.40;;
77350;SDS011;66420;50.246;14.320;2023-06-22T03:26:15;14.43;;;7.05;;
77350;SDS011;66420;50.246;14.320;2023-06-22T03:29:01;9.10;;;6.13;;
77350;SDS011;66420;50.246;14.320;2023-06-22T03:31:46;10.68;;;6.38;;
77350;SDS011;66420;50.246;14.320;2023-06-22T03:34:31;12.68;;;6.43;;
77350;SDS011;66420;50.246;14.320;2023-06-22T03:37:20;10.00;;;6.63;;
77350;SDS011;66420;50.246;14.320;2023-06-22T03:40:05;13.00;;;6.80;;
77350;SDS011;66420;50.246;14.320;2023-06-22T03:42:50;10.75;;;7.70;;
77350;SDS011;66420;50.246;14.320;2023-06-22T03:45:34;14.68;;;6.53;;
77350;SDS011;66420;50.246;14.320;2023-06-22T03:48:19;9.38;;;6.07;;
77350;SDS011;66420;50.246;14.320;2023-06-22T03:51:04;9.93;;;6.65;;
77350;SDS011;66420;50.246;14.320;2023-06-22T03:53:48;12.75;;;6.40;;
77350;SDS011;66420;50.246;14.320;2023-06-22T03:56:34;10.07;;;5.75;;
77350;SDS011;66420;50.246;14.320;2023-06-22T03:59:19;12.40;;;6.95;;
77350;SDS011;66420;50.246;14.320;2023-06-22T04:02:04;12.55;;;7.18;;
77350;SDS011;66420;50.246;14.320;2023-06-22T04:04:48;11.23;;;6.65;;
77350;SDS011;66420;50.246;14.320;2023-06-22T04:07:33;13.90;;;7.20;;
77350;SDS011;66420;50.246;14.320;2023-06-22T04:10:18;12.55;;;7.38;;
77350;SDS011;66420;50.246;14.320;2023-06-22T04:13:04;15.07;;;6.80;;
77350;SDS011;66420;50.246;14.320;2023-06-22T04:15:48;11.23;;;6.22;;
77350;SDS011;66420;50.246;14.320;2023-06-22T04:18:33;9.50;;;6.05;;
77350;SDS011;66420;50.246;14.320;2023-06-22T04:21:18;14.10;;;7.20;;
77350;SDS011;66420;50.246;14.320;2023-06-22T04:24:04;14.82;;;7.93;;
77350;SDS011;66420;50.246;14.320;2023-06-22T04:26:49;9.13;;;5.97;;
77350;SDS011;66420;50.246;14.320;2023-06-22T04:29:38;11.80;;;7.05;;
77350;SDS011;66420;50.246;14.320;2023-06-22T04:32:33;13.18;;;6.95;;
77350;SDS011;66420;50.246;14.320;2023-06-22T04:35:20;13.20;;;6.53;;
77350;SDS011;66420;50.246;14.320;2023-06-22T04:38:07;12.10;;;7.30;;
77350;SDS011;66420;50.246;14.320;2023-06-22T04:40:52;9.68;;;6.78;;
77350;SDS011;66420;50.246;14.320;2023-06-22T04:43:37;10.77;;;6.60;;
77350;SDS011;66420;50.246;14.320;2023-06-22T04:46:21;10.82;;;7.03;;
77350;SDS011;66420;50.246;14.320;2023-06-22T04:49:07;12.98;;;7.10;;
77350;SDS011;66420;50.246;14.320;2023-06-22T04:51:55;13.93;;;7.25;;
77350;SDS011;66420;50.246;14.320;2023-06-22T04:54:40;11.40;;;7.50;;
77350;SDS011;66420;50.246;14.320;2023-06-22T04:57:32;11.85;;;6.97;;
77350;SDS011;66420;50.246;14.320;2023-06-22T05:00:18;10.15;;;6.53;;
77350;SDS011;66420;50.246;14.320;2023-06-22T05:03:03;13.27;;;8.57;;
77350;SDS011;66420;50.246;14.320;2023-06-22T05:05:50;11.82;;;7.50;;
77350;SDS011;66420;50.246;14.320;2023-06-22T05:08:36;14.65;;;7.72;;
77350;SDS011;66420;50.246;14.320;2023-06-22T05:11:21;14.55;;;8.15;;
77350;SDS011;66420;50.246;14.320;2023-06-22T05:14:05;12.13;;;7.45;;
77350;SDS011;66420;50.246;14.320;2023-06-22T05:16:49;14.95;;;9.50;;
77350;SDS011;66420;50.246;14.320;2023-06-22T05:19:36;15.50;;;9.25;;
77350;SDS011;66420;50.246;14.320;2023-06-22T05:22:20;14.80;;;8.90;;
77350;SDS011;66420;50.246;14.320;2023-06-22T05:25:08;15.75;;;9.90;;
77350;SDS011;66420;50.246;14.320;2023-06-22T05:27:54;16.77;;;9.63;;
77350;SDS011;66420;50.246;14.320;2023-06-22T05:30:38;19.48;;;11.07;;
77350;SDS011;66420;50.246;14.320;2023-06-22T05:33:23;16.35;;;10.60;;
77350;SDS011;66420;50.246;14.320;2023-06-22T05:36:07;17.52;;;11.35;;
77350;SDS011;66420;50.246;14.320;2023-06-22T05:38:53;17.67;;;10.32;;
77350;SDS011;66420;50.246;14.320;2023-06-22T05:41:37;19.13;;;10.02;;
77350;SDS011;66420;50.246;14.320;2023-06-22T05:44:22;20.63;;;11.43;;
77350;SDS011;66420;50.246;14.320;2023-06-22T05:47:06;16.45;;;11.43;;
77350;SDS011;66420;50.246;14.320;2023-06-22T05:49:51;22.98;;;12.00;;
77350;SDS011;66420;50.246;14.320;2023-06-22T05:52:36;18.98;;;10.68;;
77350;SDS011;66420;50.246;14.320;2023-06-22T05:55:20;19.55;;;11.38;;
77350;SDS011;66420;50.246;14.320;2023-06-22T05:58:05;17.42;;;10.73;;
77350;SDS011;66420;50.246;14.320;2023-06-22T06:00:50;17.85;;;11.68;;
77350;SDS011;66420;50.246;14.320;2023-06-22T06:03:35;20.30;;;12.10;;
77350;SDS011;66420;50.246;14.320;2023-06-22T06:06:25;18.27;;;11.38;;
77350;SDS011;66420;50.246;14.320;2023-06-22T06:09:13;20.38;;;12.23;;
77350;SDS011;66420;50.246;14.320;2023-06-22T06:11:59;22.80;;;11.95;;
77350;SDS011;66420;50.246;14.320;2023-06-22T06:14:44;21.63;;;11.63;;
77350;SDS011;66420;50.246;14.320;2023-06-22T06:17:28;16.23;;;11.25;;
77350;SDS011;66420;50.246;14.320;2023-06-22T06:20:12;22.80;;;11.35;;
77350;SDS011;66420;50.246;14.320;2023-06-22T06:22:57;18.88;;;10.48;;
77350;SDS011;66420;50.246;14.320;2023-06-22T06:25:42;20.75;;;10.75;;
77350;SDS011;66420;50.246;14.320;2023-06-22T06:28:26;18.15;;;11.27;;
77350;SDS011;66420;50.246;14.320;2023-06-22T06:31:11;21.75;;;10.57;;
77350;SDS011;66420;50.246;14.320;2023-06-22T06:34:01;18.08;;;9.77;;
77350;SDS011;66420;50.246;14.320;2023-06-22T06:36:46;19.75;;;10.93;;
77350;SDS011;66420;50.246;14.320;2023-06-22T06:39:30;18.90;;;10.00;;
77350;SDS011;66420;50.246;14.320;2023-06-22T06:42:15;17.40;;;9.57;;
77350;SDS011;66420;50.246;14.320;2023-06-22T06:44:59;15.98;;;10.40;;
77350;SDS011;66420;50.246;14.320;2023-06-22T06:47:44;17.20;;;9.73;;
77350;SDS011;66420;50.246;14.320;2023-06-22T06:50:29;17.10;;;10.55;;
77350;SDS011;66420;50.246;14.320;2023-06-22T06:53:14;16.02;;;9.00;;
77350;SDS011;66420;50.246;14.320;2023-06-22T06:55:59;15.93;;;9.65;;
77350;SDS011;66420;50.246;14.320;2023-06-22T06:58:44;18.48;;;9.50;;
77350;SDS011;66420;50.246;14.320;2023-06-22T07:01:29;16.58;;;9.77;;
77350;SDS011;66420;50.246;14.320;2023-06-22T07:04:17;18.15;;;10.10;;
77350;SDS011;66420;50.246;14.320;2023-06-22T07:07:05;15.73;;;9.10;;
77350;SDS011;66420;50.246;14.320;2023-06-22T07:09:50;21.08;;;10.85;;
77350;SDS011;66420;50.246;14.320;2023-06-22T07:12:34;19.85;;;11.25;;
77350;SDS011;66420;50.246;14.320;2023-06-22T07:15:19;20.38;;;10.88;;
77350;SDS011;66420;50.246;14.320;2023-06-22T07:18:03;19.48;;;9.98;;
77350;SDS011;66420;50.246;14.320;2023-06-22T07:20:49;18.58;;;10.35;;
77350;SDS011;66420;50.246;14.320;2023-06-22T07:23:33;17.65;;;9.27;;
77350;SDS011;66420;50.246;14.320;2023-06-22T07:26:18;21.73;;;9.48;;
77350;SDS011;66420;50.246;14.320;2023-06-22T07:29:03;19.63;;;9.25;;
77350;SDS011;66420;50.246;14.320;2023-06-22T07:31:49;17.35;;;8.65;;
77350;SDS011;66420;50.246;14.320;2023-06-22T07:34:35;16.00;;;8.48;;
77350;SDS011;66420;50.246;14.320;2023-06-22T07:37:20;17.13;;;8.82;;
77350;SDS011;66420;50.246;14.320;2023-06-22T07:40:05;13.50;;;8.70;;
77350;SDS011;66420;50.246;14.320;2023-06-22T07:42:51;17.05;;;8.20;;
77350;SDS011;66420;50.246;14.320;2023-06-22T07:45:37;16.88;;;7.40;;
77350;SDS011;66420;50.246;14.320;2023-06-22T07:48:24;15.55;;;6.82;;
77350;SDS011;66420;50.246;14.320;2023-06-22T07:51:08;12.63;;;7.35;;
77350;SDS011;66420;50.246;14.320;2023-06-22T07:53:53;11.13;;;7.32;;
77350;SDS011;66420;50.246;14.320;2023-06-22T07:56:38;12.50;;;7.35;;
77350;SDS011;66420;50.246;14.320;2023-06-22T07:59:22;12.90;;;7.30;;
77350;SDS011;66420;50.246;14.320;2023-06-22T08:02:07;12.30;;;7.07;;
77350;SDS011;66420;50.246;14.320;2023-06-22T08:04:52;12.60;;;6.57;;
77350;SDS011;66420;50.246;14.320;2023-06-22T08:07:37;14.63;;;6.20;;
77350;SDS011;66420;50.246;14.320;2023-06-22T08:10:22;14.35;;;6.35;;
77350;SDS011;66420;50.246;14.320;2023-06-22T08:13:06;10.27;;;6.55;;
77350;SDS011;66420;50.246;14.320;2023-06-22T08:15:51;11.70;;;6.53;;
77350;SDS011;66420;50.246;14.320;2023-06-22T08:18:36;9.13;;;6.18;;
77350;SDS011;66420;50.246;14.320;2023-06-22T08:21:21;10.45;;;6.38;;
77350;SDS011;66420;50.246;14.320;2023-06-22T08:24:06;11.65;;;6.43;;
77350;SDS011;66420;50.246;14.320;2023-06-22T08:26:51;11.10;;;6.25;;
77350;SDS011;66420;50.246;14.320;2023-06-22T08:29:36;9.50;;;6.68;;
77350;SDS011;66420;50.246;14.320;2023-06-22T08:32:21;8.70;;;6.28;;
77350;SDS011;66420;50.246;14.320;2023-06-22T08:35:06;10.07;;;6.35;;
77350;SDS011;66420;50.246;14.320;2023-06-22T08:37:53;11.35;;;6.78;;
77350;SDS011;66420;50.246;14.320;2023-06-22T08:40:38;14.73;;;6.45;;
77350;SDS011;66420;50.246;14.320;2023-06-22T08:43:22;8.55;;;6.35;;
77350;SDS011;66420;50.246;14.320;2023-06-22T08:46:07;10.60;;;5.72;;
77350;SDS011;66420;50.246;14.320;2023-06-22T08:48:52;15.15;;;6.43;;
77350;SDS011;66420;50.246;14.320;2023-06-22T08:51:36;8.98;;;6.38;;
77350;SDS011;66420;50.246;14.320;2023-06-22T08:54:20;10.82;;;6.30;;
77350;SDS011;66420;50.246;14.320;2023-06-22T08:57:05;9.40;;;6.32;;
77350;SDS011;66420;50.246;14.320;2023-06-22T08:59:50;10.52;;;6.22;;
77350;SDS011;66420;50.246;14.320;2023-06-22T09:02:37;9.65;;;6.40;;
77350;SDS011;66420;50.246;14.320;2023-06-22T09:05:22;11.85;;;6.47;;
77350;SDS011;66420;50.246;14.320;2023-06-22T09:08:07;11.18;;;6.95;;
77350;SDS011;66420;50.246;14.320;2023-06-22T09:10:52;10.27;;;6.22;;
77350;SDS011;66420;50.246;14.320;2023-06-22T09:13:36;11.68;;;6.03;;
77350;SDS011;66420;50.246;14.320;2023-06-22T09:16:21;9.65;;;6.43;;
77350;SDS011;66420;50.246;14.320;2023-06-22T09:19:05;9.93;;;6.20;;
77350;SDS011;66420;50.246;14.320;2023-06-22T09:21:50;9.95;;;6.35;;
77350;SDS011;66420;50.246;14.320;2023-06-22T09:24:35;9.77;;;6.13;;
77350;SDS011;66420;50.246;14.320;2023-06-22T09:27:20;9.57;;;6.43;;
77350;SDS011;66420;50.246;14.320;2023-06-22T09:30:05;11.13;;;6.13;;
77350;SDS011;66420;50.246;14.320;2023-06-22T09:32:50;10.50;;;5.97;;
77350;SDS011;66420;50.246;14.320;2023-06-22T09:35:36;10.55;;;5.93;;
77350;SDS011;66420;50.246;14.320;2023-06-22T09:38:21;9.80;;;5.72;;
77350;SDS011;66420;50.246;14.320;2023-06-22T09:41:05;9.52;;;6.03;;
77350;SDS011;66420;50.246;14.320;2023-06-22T09:43:50;8.05;;;5.65;;
77350;SDS011;66420;50.246;14.320;2023-06-22T09:46:35;8.05;;;6.32;;
77350;SDS011;66420;50.246;14.320;2023-06-22T09:49:20;12.32;;;6.28;;
77350;SDS011;66420;50.246;14.320;2023-06-22T09:52:05;10.02;;;6.88;;
77350;SDS011;66420;50.246;14.320;2023-06-22T09:54:50;12.65;;;6.22;;
77350;SDS011;66420;50.246;14.320;2023-06-22T09:57:35;8.95;;;5.65;;
77350;SDS011;66420;50.246;14.320;2023-06-22T10:00:19;9.95;;;6.10;;
77350;SDS011;66420;50.246;14.320;2023-06-22T10:03:05;8.32;;;5.80;;
77350;SDS011;66420;50.246;14.320;2023-06-22T10:05:50;11.80;;;6.70;;
77350;SDS011;66420;50.246;14.320;2023-06-22T10:08:35;10.43;;;6.53;;
77350;SDS011;66420;50.246;14.320;2023-06-22T10:11:20;8.82;;;6.25;;
77350;SDS011;66420;50.246;14.320;2023-06-22T10:14:11;7.95;;;5.97;;
77350;SDS011;66420;50.246;14.320;2023-06-22T10:16:55;9.90;;;5.90;;
77350;SDS011;66420;50.246;14.320;2023-06-22T10:19:40;13.75;;;6.68;;
77350;SDS011;66420;50.246;14.320;2023-06-22T10:22:25;10.70;;;6.18;;
77350;SDS011;66420;50.246;14.320;2023-06-22T10:25:10;8.13;;;6.03;;
77350;SDS011;66420;50.246;14.320;2023-06-22T10:27:56;11.57;;;6.10;;
77350;SDS011;66420;50.246;14.320;2023-06-22T10:30:41;10.02;;;6.57;;
77350;SDS011;66420;50.246;14.320;2023-06-22T10:33:27;10.15;;;6.53;;
77350;SDS011;66420;50.246;14.320;2023-06-22T10:36:11;8.95;;;6.03;;
77350;SDS011;66420;50.246;14.320;2023-06-22T10:38:56;8.30;;;5.70;;
77350;SDS011;66420;50.246;14.320;2023-06-22T10:41:43;13.38;;;6.13;;
77350;SDS011;66420;50.246;14.320;2023-06-22T10:44:28;7.88;;;5.70;;
77350;SDS011;66420;50.246;14.320;2023-06-22T10:47:12;7.30;;;5.85;;
77350;SDS011;66420;50.246;14.320;2023-06-22T10:49:57;8.50;;;5.75;;
77350;SDS011;66420;50.246;14.320;2023-06-22T10:52:42;9.68;;;6.35;;
77350;SDS011;66420;50.246;14.320;2023-06-22T10:55:26;11.75;;;5.63;;
77350;SDS011;66420;50.246;14.320;2023-06-22T10:58:11;7.55;;;5.45;;
77350;SDS011;66420;50.246;14.320;2023-06-22T11:00:56;11.68;;;6.22;;
77350;SDS011;66420;50.246;14.320;2023-06-22T11:03:40;8.98;;;5.53;;
77350;SDS011;66420;50.246;14.320;2023-06-22T11:06:25;11.57;;;5.68;;
77350;SDS011;66420;50.246;14.320;2023-06-22T11:09:09;8.15;;;5.70;;
77350;SDS011;66420;50.246;14.320;2023-06-22T11:11:55;10.00;;;5.88;;
77350;SDS011;66420;50.246;14.320;2023-06-22T11:14:40;8.38;;;5.70;;
77350;SDS011;66420;50.246;14.320;2023-06-22T11:17:24;8.43;;;5.65;;
77350;SDS011;66420;50.246;14.320;2023-06-22T11:20:09;10.10;;;5.93;;
77350;SDS011;66420;50.246;14.320;2023-06-22T11:22:55;9.68;;;5.68;;
77350;SDS011;66420;50.246;14.320;2023-06-22T11:25:40;9.35;;;5.97;;
77350;SDS011;66420;50.246;14.320;2023-06-22T11:28:27;11.18;;;6.43;;
77350;SDS011;66420;50.246;14.320;2023-06-22T11:31:11;10.52;;;6.10;;
77350;SDS011;66420;50.246;14.320;2023-06-22T11:33:56;11.30;;;6.15;;
77350;SDS011;66420;50.246;14.320;2023-06-22T11:36:40;9.95;;;6.55;;
77350;SDS011;66420;50.246;14.320;2023-06-22T11:39:25;12.98;;;6.40;;
77350;SDS011;66420;50.246;14.320;2023-06-22T11:42:10;11.70;;;5.95;;
77350;SDS011;66420;50.246;14.320;2023-06-22T11:44:54;11.05;;;6.15;;
77350;SDS011;66420;50.246;14.320;2023-06-22T11:47:39;7.70;;;5.85;;
77350;SDS011;66420;50.246;14.320;2023-06-22T11:50:24;9.40;;;5.85;;
77350;SDS011;66420;50.246;14.320;2023-06-22T11:53:09;9.68;;;5.25;;
77350;SDS011;66420;50.246;14.320;2023-06-22T11:55:54;8.30;;;5.68;;
77350;SDS011;66420;50.246;14.320;2023-06-22T11:58:39;12.88;;;5.65;;
77350;SDS011;66420;50.246;14.320;2023-06-22T12:01:24;10.90;;;5.50;;
77350;SDS011;66420;50.246;14.320;2023-06-22T12:04:09;10.60;;;6.25;;
77350;SDS011;66420;50.246;14.320;2023-06-22T12:06:55;10.15;;;5.75;;
77350;SDS011;66420;50.246;14.320;2023-06-22T12:09:39;8.75;;;5.80;;
77350;SDS011;66420;50.246;14.320;2023-06-22T12:12:24;12.25;;;5.97;;
77350;SDS011;66420;50.246;14.320;2023-06-22T12:15:12;10.32;;;6.07;;
77350;SDS011;66420;50.246;14.320;2023-06-22T12:17:56;13.02;;;6.50;;
77350;SDS011;66420;50.246;14.320;2023-06-22T12:20:41;9.18;;;5.70;;
77350;SDS011;66420;50.246;14.320;2023-06-22T12:23:25;8.50;;;5.45;;
77350;SDS011;66420;50.246;14.320;2023-06-22T12:26:10;10.63;;;6.28;;
77350;SDS011;66420;50.246;14.320;2023-06-22T12:28:55;7.18;;;5.63;;
77350;SDS011;66420;50.246;14.320;2023-06-22T12:31:39;8.18;;;6.20;;
77350;SDS011;66420;50.246;14.320;2023-06-22T12:34:25;7.32;;;5.75;;
77350;SDS011;66420;50.246;14.320;2023-06-22T12:37:10;11.18;;;6.38;;
77350;SDS011;66420;50.246;14.320;2023-06-22T12:39:55;11.20;;;6.30;;
77350;SDS011;66420;50.246;14.320;2023-06-22T12:42:39;9.20;;;5.85;;
77350;SDS011;66420;50.246;14.320;2023-06-22T12:45:24;10.60;;;6.50;;
77350;SDS011;66420;50.246;14.320;2023-06-22T12:48:13;10.50;;;6.32;;
77350;SDS011;66420;50.246;14.320;2023-06-22T12:50:58;10.75;;;6.25;;
77350;SDS011;66420;50.246;14.320;2023-06-22T12:53:42;11.27;;;6.78;;
77350;SDS011;66420;50.246;14.320;2023-06-22T12:56:28;8.52;;;5.90;;
77350;SDS011;66420;50.246;14.320;2023-06-22T12:59:12;9.80;;;6.00;;
77350;SDS011;66420;50.246;14.320;2023-06-22T13:01:57;8.95;;;6.50;;
77350;SDS011;66420;50.246;14.320;2023-06-22T13:04:41;12.35;;;6.63;;
77350;SDS011;66420;50.246;14.320;2023-06-22T13:07:27;8.98;;;6.22;;
77350;SDS011;66420;50.246;14.320;2023-06-22T13:10:12;8.57;;;6.10;;
77350;SDS011;66420;50.246;14.320;2023-06-22T13:12:57;12.27;;;7.13;;
77350;SDS011;66420;50.246;14.320;2023-06-22T13:15:44;11.52;;;6.28;;
77350;SDS011;66420;50.246;14.320;2023-06-22T13:18:29;8.80;;;6.45;;
77350;SDS011;66420;50.246;14.320;2023-06-22T13:21:14;10.52;;;6.20;;
77350;SDS011;66420;50.246;14.320;2023-06-22T13:23:59;9.25;;;6.47;;
77350;SDS011;66420;50.246;14.320;2023-06-22T13:26:43;10.95;;;6.65;;
77350;SDS011;66420;50.246;14.320;2023-06-22T13:29:28;12.27;;;6.22;;
77350;SDS011;66420;50.246;14.320;2023-06-22T13:32:13;8.32;;;6.35;;
77350;SDS011;66420;50.246;14.320;2023-06-22T13:34:58;9.85;;;6.13;;
77350;SDS011;66420;50.246;14.320;2023-06-22T13:37:42;9.75;;;6.38;;
77350;SDS011;66420;50.246;14.320;2023-06-22T13:40:28;10.63;;;6.57;;
77350;SDS011;66420;50.246;14.320;2023-06-22T13:43:13;11.38;;;7.20;;
77350;SDS011;66420;50.246;14.320;2023-06-22T13:45:58;9.00;;;6.03;;
77350;SDS011;66420;50.246;14.320;2023-06-22T13:48:43;8.38;;;6.10;;
77350;SDS011;66420;50.246;14.320;2023-06-22T13:51:27;8.55;;;6.65;;
77350;SDS011;66420;50.246;14.320;2023-06-22T13:54:12;12.63;;;6.75;;
77350;SDS011;66420;50.246;14.320;2023-06-22T13:56:56;14.23;;;7.07;;
77350;SDS011;66420;50.246;14.320;2023-06-22T13:59:41;13.30;;;6.60;;
77350;SDS011;66420;50.246;14.320;2023-06-22T14:02:25;10.30;;;6.22;;
77350;SDS011;66420;50.246;14.320;2023-06-22T14:05:10;7.90;;;5.72;;
77350;SDS011;66420;50.246;14.320;2023-06-22T14:07:56;10.35;;;6.32;;
77350;SDS011;66420;50.246;14.320;2023-06-22T14:10:41;8.30;;;6.10;;
77350;SDS011;66420;50.246;14.320;2023-06-22T14:13:25;11.18;;;6.78;;
77350;SDS011;66420;50.246;14.320;2023-06-22T14:16:10;13.80;;;6.93;;
77350;SDS011;66420;50.246;14.320;2023-06-22T14:18:55;10.18;;;6.57;;
77350;SDS011;66420;50.246;14.320;2023-06-22T14:21:39;12.73;;;6.50;;
77350;SDS011;66420;50.246;14.320;2023-06-22T14:24:24;9.43;;;6.22;;
77350;SDS011;66420;50.246;14.320;2023-06-22T14:27:09;10.55;;;6.55;;
77350;SDS011;66420;50.246;14.320;2023-06-22T14:29:54;12.93;;;6.05;;
77350;SDS011;66420;50.246;14.320;2023-06-22T14:32:38;11.13;;;6.30;;
77350;SDS011;66420;50.246;14.320;2023-06-22T14:35:23;10.27;;;6.03;;
77350;SDS011;66420;50.246;14.320;2023-06-22T14:38:08;7.95;;;6.50;;
77350;SDS011;66420;50.246;14.320;2023-06-22T14:40:52;8.05;;;6.10;;
77350;SDS011;66420;50.246;14.320;2023-06-22T14:43:37;10.05;;;5.95;;
77350;SDS011;66420;50.246;14.320;2023-06-22T14:46:22;11.52;;;6.47;;
77350;SDS011;66420;50.246;14.320;2023-06-22T14:49:07;9.63;;;5.95;;
77350;SDS011;66420;50.246;14.320;2023-06-22T14:51:51;11.73;;;6.50;;
77350;SDS011;66420;50.246;14.320;2023-06-22T14:54:36;9.43;;;5.95;;
77350;SDS011;66420;50.246;14.320;2023-06-22T14:57:20;14.18;;;6.43;;
77350;SDS011;66420;50.246;14.320;2023-06-22T15:00:07;11.48;;;6.60;;
77350;SDS011;66420;50.246;14.320;2023-06-22T15:02:52;12.40;;;6.30;;
77350;SDS011;66420;50.246;14.320;2023-06-22T15:05:36;11.35;;;5.95;;
77350;SDS011;66420;50.246;14.320;2023-06-22T15:08:21;10.60;;;5.90;;
77350;SDS011;66420;50.246;14.320;2023-06-22T15:11:05;10.60;;;5.95;;
77350;SDS011;66420;50.246;14.320;2023-06-22T15:13:50;11.98;;;6.13;;
77350;SDS011;66420;50.246;14.320;2023-06-22T15:16:35;8.55;;;6.03;;
77350;SDS011;66420;50.246;14.320;2023-06-22T15:19:19;9.40;;;5.68;;
77350;SDS011;66420;50.246;14.320;2023-06-22T15:22:04;11.18;;;5.90;;
77350;SDS011;66420;50.246;14.320;2023-06-22T15:24:50;9.90;;;5.68;;
77350;SDS011;66420;50.246;14.320;2023-06-22T15:27:37;11.57;;;6.00;;
77350;SDS011;66420;50.246;14.320;2023-06-22T15:30:22;10.10;;;5.88;;
77350;SDS011;66420;50.246;14.320;2023-06-22T15:33:06;11.38;;;6.30;;
77350;SDS011;66420;50.246;14.320;2023-06-22T15:35:51;11.40;;;6.05;;
77350;SDS011;66420;50.246;14.320;2023-06-22T15:38:37;9.40;;;5.55;;
77350;SDS011;66420;50.246;14.320;2023-06-22T15:41:22;10.95;;;6.03;;
77350;SDS011;66420;50.246;14.320;2023-06-22T15:44:07;8.23;;;5.80;;
77350;SDS011;66420;50.246;14.320;2023-06-22T15:46:52;11.35;;;6.07;;
77350;SDS011;66420;50.246;14.320;2023-06-22T15:49:37;10.32;;;6.00;;
77350;SDS011;66420;50.246;14.320;2023-06-22T15:52:21;10.50;;;5.88;;
77350;SDS011;66420;50.246;14.320;2023-06-22T15:55:06;9.68;;;5.70;;
77350;SDS011;66420;50.246;14.320;2023-06-22T15:57:53;9.55;;;5.45;;
77350;SDS011;66420;50.246;14.320;2023-06-22T16:00:38;11.75;;;6.13;;
77350;SDS011;66420;50.246;14.320;2023-06-22T16:03:23;9.75;;;5.97;;
77350;SDS011;66420;50.246;14.320;2023-06-22T16:06:07;10.27;;;6.18;;
77350;SDS011;66420;50.246;14.320;2023-06-22T16:08:52;10.10;;;5.90;;
77350;SDS011;66420;50.246;14.320;2023-06-22T16:11:37;11.32;;;6.07;;